Time;durP1;ratioP1;P1;durP2;ratioP2;P2;SDS_P1;SDS_P2;PMS_P1;PMS_P2;Temp;Humidity;BMP_temperature;BMP_pressure;BME280_temperature;BME280_humidity;BME280_pressure;Samples;Min_cycle;Max_cycle;Signal;HPM_P1;HPM_P2
2023/10/03 00:02:01;;;;;;;;;;;;;;;27.70;81.93;100982.13;5016394;28;70442;-38
2023/10/03 00:04:31;;;;;;;;;;;;;;;27.75;84.35;100978.81;5019200;28;65249;-40
2023/10/03 00:07:01;;;;;;;;;;;;;;;27.78;84.60;100978.47;5020543;28;68710;-38
2023/10/03 00:09:32;;;;;;;;;;;;;;;27.82;85.07;100985.13;5017943;28;66466;-37
2023/10/03 00:12:02;;;;;;;;;;;;;;;27.84;85.16;100972.31;5021034;28;69067;-39
2023/10/03 00:14:31;;;;;;;;;;;;;;;27.90;84.99;100976.06;5003352;28;66390;-39
2023/10/03 00:17:01;;;;;;;;;;;;;;;27.92;85.16;100985.63;5017480;28;70153;-38
2023/10/03 00:19:31;;;;;;;;;;;;;;;27.93;85.36;100992.69;5017306;28;66258;-39
2023/10/03 00:22:01;;;;;;;;;;;;;;;27.95;85.67;100990.63;5022975;28;70390;-40
2023/10/03 00:24:31;;;;;;;;;;;;;;;27.97;85.29;100999.34;5015878;28;65247;-39
2023/10/03 00:27:01;;;;;;;;;;;;;;;27.97;86.83;101006.59;5004451;28;70347;-37
2023/10/03 00:29:33;;;;;;;;;;;;;;;27.91;88.56;101013.59;5021168;28;65992;-38
2023/10/03 00:32:03;;;;;;;;;;;;;;;27.87;89.83;101015.03;5019542;28;69858;-38
2023/10/03 00:34:36;;;;;;;;;;;;;;;27.88;89.69;101011.31;5005547;28;65954;-39
2023/10/03 00:37:06;;;;;;;;;;;;;;;27.93;88.88;101013.41;4996955;28;70394;-40
2023/10/03 00:39:36;;;;;;;;;;;;;;;27.93;87.88;101016.94;4999156;28;66343;-40
2023/10/03 00:42:09;;;;;;;;;;;;;;;27.96;86.16;101027.34;5005570;28;70259;-40
2023/10/03 00:44:38;;;;;;;;;;;;;;;27.99;85.30;101026.09;5017498;28;66459;-41
2023/10/03 00:47:08;;;;;;;;;;;;;;;28.02;84.54;101034.63;5017120;28;69955;-41
2023/10/03 00:49:38;;;;;;;;;;;;;;;28.05;83.90;101033.41;5016772;28;65777;-41
2023/10/03 00:52:09;;;;;;;;;;;;;;;28.08;83.20;101033.00;5020548;28;70546;-40
2023/10/03 00:54:40;;;;;;;;;;;;;;;28.08;82.50;101038.41;5016472;28;66930;-41
2023/10/03 00:57:09;;;;;;;;;;;;;;;28.13;81.99;101040.50;5000746;28;70784;-41
2023/10/03 00:59:39;;;;;;;;;;;;;;;28.14;82.04;101048.41;5014795;28;67902;-41
2023/10/03 01:02:09;;;;;;;;;;;;;;;28.16;81.76;101057.13;5013530;28;70767;-41
2023/10/03 01:04:40;;;;;;;;;;;;;;;28.18;81.38;101051.53;5018222;28;65547;-40
2023/10/03 01:07:11;;;;;;;;;;;;;;;28.20;80.87;101057.59;5015792;28;70504;-40
2023/10/03 01:09:41;;;;;;;;;;;;;;;28.22;81.06;101060.91;5022785;28;66839;-40
2023/10/03 01:12:11;;;;;;;;;;;;;;;28.23;80.30;101062.56;5026401;28;68974;-41
2023/10/03 01:14:42;;;;;;;;;;;;;;;28.25;80.19;101065.88;4999169;28;65996;-40
2023/10/03 01:17:13;;;;;;;;;;;;;;;28.27;80.44;101066.53;5019627;28;68890;-40
2023/10/03 01:19:43;;;;;;;;;;;;;;;28.27;80.38;101063.84;5019652;28;66164;-51
2023/10/03 01:22:13;;;;;;;;;;;;;;;28.28;80.05;101063.66;5021318;28;70374;-40
2023/10/03 01:24:44;;;;;;;;;;;;;;;28.31;80.01;101070.50;5016853;28;66109;-42
2023/10/03 01:27:15;;;;;;;;;;;;;;;28.33;80.04;101073.00;5006417;28;70682;-42
2023/10/03 01:29:45;;;;;;;;;;;;;;;28.34;79.85;101070.13;4996648;28;66303;-41
2023/10/03 01:32:17;;;;;;;;;;;;;;;28.36;79.83;101072.59;5013131;28;70094;-40
2023/10/03 01:34:47;;;;;;;;;;;;;;;28.37;79.37;101077.81;5011804;28;66002;-41
2023/10/03 01:37:19;;;;;;;;;;;;;;;28.39;79.15;101088.38;5008820;28;70629;-41
2023/10/03 01:39:49;;;;;;;;;;;;;;;28.40;79.60;101080.09;5008668;28;65803;-41
2023/10/03 01:42:18;;;;;;;;;;;;;;;28.40;79.72;101085.50;4989987;28;70578;-41
2023/10/03 01:44:50;;;;;;;;;;;;;;;28.43;79.05;101092.41;5011921;28;67244;-42
2023/10/03 01:47:20;;;;;;;;;;;;;;;28.44;79.55;101089.47;5008000;28;69324;-41
2023/10/03 01:49:51;;;;;;;;;;;;;;;28.46;79.30;101089.31;5018531;28;66765;-40
2023/10/03 01:52:21;;;;;;;;;;;;;;;28.48;79.27;101092.63;5014751;28;69839;-41
2023/10/03 01:54:51;;;;;;;;;;;;;;;28.49;79.34;101089.72;5014371;28;67440;-40
2023/10/03 01:57:21;;;;;;;;;;;;;;;28.51;78.77;101092.25;5023325;28;70339;-40
2023/10/03 01:59:51;;;;;;;;;;;;;;;28.52;79.13;101094.72;5000970;28;65871;-40
2023/10/03 02:02:21;;;;;;;;;;;;;;;28.54;79.26;101091.84;4997755;28;70703;-41
2023/10/03 02:04:52;;;;;;;;;;;;;;;28.57;78.74;101090.59;5014680;28;66678;-40
2023/10/03 02:07:26;;;;;;;;;;;;;;;28.59;79.02;101099.34;5018118;28;69099;-40
2023/10/03 02:09:56;;;;;;;;;;;;;;;28.60;79.08;101084.81;4994558;28;67090;-41
2023/10/03 02:12:26;;;;;;;;;;;;;;;28.63;78.58;101092.50;5024359;28;70197;-42
2023/10/03 02:14:56;;;;;;;;;;;;;;;28.65;78.91;101093.16;5017680;28;66809;-43
2023/10/03 02:17:28;;;;;;;;;;;;;;;28.65;78.61;101088.56;5017707;28;70094;-41
2023/10/03 02:19:59;;;;;;;;;;;;;;;28.36;78.80;101038.38;4993740;28;67021;-40
2023/10/03 02:22:29;;;;;;;;;;;;;;;28.69;78.34;101083.59;5009407;28;70941;-41
2023/10/03 02:25:01;;;;;;;;;;;;;;;28.70;78.91;101096.09;5019197;28;66908;-41
2023/10/03 02:27:31;;;;;;;;;;;;;;;28.71;78.41;101098.56;5016859;28;70627;-41
2023/10/03 02:30:12;;;;;;;;;;;;;;;28.72;78.88;101102.09;5019234;28;65389;-40
2023/10/03 02:32:42;;;;;;;;;;;;;;;28.75;78.73;101101.69;5012227;28;69901;-40
2023/10/03 02:35:14;;;;;;;;;;;;;;;28.77;78.36;101096.94;5017015;28;66064;-42
2023/10/03 02:37:44;;;;;;;;;;;;;;;28.79;78.51;101086.78;5013896;28;70395;-40
2023/10/03 02:40:15;;;;;;;;;;;;;;;28.81;78.25;101092.81;5009949;28;66670;-41
2023/10/03 02:42:45;;;;;;;;;;;;;;;28.82;78.85;101089.06;5012761;28;69406;-40
2023/10/03 02:45:17;;;;;;;;;;;;;;;28.85;78.42;101083.25;5002047;28;65825;-41
2023/10/03 02:47:48;;;;;;;;;;;;;;;28.87;78.14;101081.19;5007713;28;70218;-40
2023/10/03 02:50:19;;;;;;;;;;;;;;;28.88;78.26;101077.44;5005564;28;66308;-41
2023/10/03 02:52:49;;;;;;;;;;;;;;;28.92;78.40;101086.00;5013690;28;70482;-39
2023/10/03 02:55:19;;;;;;;;;;;;;;;28.94;78.13;101087.44;5012638;28;66328;-40
2023/10/03 02:57:49;;;;;;;;;;;;;;;28.97;78.14;101086.19;5007526;28;70745;-40
2023/10/03 03:00:20;;;;;;;;;;;;;;;28.97;78.54;101075.41;5001096;28;66372;-41
2023/10/03 03:02:50;;;;;;;;;;;;;;;28.99;78.41;101077.91;5014437;28;71068;-40
2023/10/03 03:05:24;;;;;;;;;;;;;;;29.03;78.25;101076.47;5017273;28;66266;-40
2023/10/03 03:07:58;;;;;;;;;;;;;;;29.04;78.34;101064.66;5013114;28;71006;-40
2023/10/03 03:10:30;;;;;;;;;;;;;;;29.07;78.34;101069.66;5004175;28;65993;-41
2023/10/03 03:13:01;;;;;;;;;;;;;;;29.10;78.29;101061.16;5004707;28;70383;-40
2023/10/03 03:15:32;;;;;;;;;;;;;;;29.12;77.67;101056.38;5010990;28;65733;-40
2023/10/03 03:18:02;;;;;;;;;;;;;;;29.15;77.65;101061.38;5023208;28;69984;-42
2023/10/03 03:20:42;;;;;;;;;;;;;;;29.16;77.53;101052.22;5018432;28;66064;-41
2023/10/03 03:23:14;;;;;;;;;;;;;;;29.19;77.52;101046.41;5012696;28;70091;-41
2023/10/03 03:25:44;;;;;;;;;;;;;;;29.22;77.36;101047.88;5009921;28;66396;-41
2023/10/03 03:28:14;;;;;;;;;;;;;;;29.24;77.35;101038.53;5004543;28;70555;-41
2023/10/03 03:30:47;;;;;;;;;;;;;;;29.26;77.53;101033.75;5015566;28;66253;-41
2023/10/03 03:33:20;;;;;;;;;;;;;;;29.29;77.46;101036.03;5027156;28;70293;-40
2023/10/03 03:35:50;;;;;;;;;;;;;;;29.31;77.00;101031.28;5019390;28;66333;-42
2023/10/03 03:38:20;;;;;;;;;;;;;;;29.34;77.54;101022.75;5009916;28;70649;-40
2023/10/03 03:40:56;;;;;;;;;;;;;;;29.37;77.05;101026.91;5018422;28;66886;-41
2023/10/03 03:43:26;;;;;;;;;;;;;;;29.38;77.20;101018.56;5010135;28;69901;-41
2023/10/03 03:45:55;;;;;;;;;;;;;;;29.42;76.77;101012.75;4999101;28;65935;-41
2023/10/03 03:48:26;;;;;;;;;;;;;;;29.44;77.15;101003.41;5013131;28;70634;-41
2023/10/03 03:50:56;;;;;;;;;;;;;;;29.47;76.92;101004.88;5016904;28;66400;-41
2023/10/03 03:53:25;;;;;;;;;;;;;;;29.49;76.78;100995.50;5017027;28;70321;-41
2023/10/03 03:55:55;;;;;;;;;;;;;;;29.52;76.43;100991.56;5021245;28;66548;-41
2023/10/03 03:58:26;;;;;;;;;;;;;;;29.56;76.27;101000.91;5016321;28;70718;-41
2023/10/03 04:00:56;;;;;;;;;;;;;;;29.57;76.29;100983.66;5020788;28;65725;-42
2023/10/03 04:03:29;;;;;;;;;;;;;;;29.59;76.67;100977.00;5013533;28;70187;-41
2023/10/03 04:05:59;;;;;;;;;;;;;;;29.60;76.46;100970.56;5017835;28;67005;-41
2023/10/03 04:08:29;;;;;;;;;;;;;;;29.64;76.29;100967.47;5014797;28;70301;-41
2023/10/03 04:10:58;;;;;;;;;;;;;;;29.66;76.52;100960.81;5021114;28;66319;-42
2023/10/03 04:13:30;;;;;;;;;;;;;;;29.67;75.96;100951.66;5019428;28;70097;-41
2023/10/03 04:16:00;;;;;;;;;;;;;;;29.70;75.83;100940.44;5019893;28;65781;-40
2023/10/03 04:18:29;;;;;;;;;;;;;;;29.73;75.92;100928.38;5021971;28;70728;-41
2023/10/03 04:21:00;;;;;;;;;;;;;;;29.73;76.21;100923.78;5026741;28;65222;-41
2023/10/03 04:23:30;;;;;;;;;;;;;;;29.75;76.05;100927.09;5018321;28;69870;-40
2023/10/03 04:26:00;;;;;;;;;;;;;;;29.77;75.95;100918.78;5019014;28;66669;-41
2023/10/03 04:28:31;;;;;;;;;;;;;;;29.78;76.13;100921.28;5000773;28;69907;-41
2023/10/03 04:31:00;;;;;;;;;;;;;;;29.80;76.15;100908.34;5021701;28;66540;-40
2023/10/03 04:33:30;;;;;;;;;;;;;;;29.81;76.06;100899.22;5013970;28;70085;-40
2023/10/03 04:36:04;;;;;;;;;;;;;;;29.83;75.81;100902.53;5001718;28;66058;-40
2023/10/03 04:38:34;;;;;;;;;;;;;;;29.83;75.97;100897.13;5021617;28;70242;-41
2023/10/03 04:41:09;;;;;;;;;;;;;;;29.85;75.71;100888.81;5023092;28;65539;-41
2023/10/03 04:43:39;;;;;;;;;;;;;;;29.88;75.69;100888.38;5021388;28;70279;-42
2023/10/03 04:46:10;;;;;;;;;;;;;;;29.90;75.78;100885.47;5005928;28;66173;-40
2023/10/03 04:48:40;;;;;;;;;;;;;;;29.91;75.77;100873.59;5021065;28;70470;-41
2023/10/03 04:51:14;;;;;;;;;;;;;;;29.94;75.45;100865.88;5016986;28;66844;-40
2023/10/03 04:53:44;;;;;;;;;;;;;;;29.95;75.69;100867.56;5007908;28;69653;-42
2023/10/03 04:56:14;;;;;;;;;;;;;;;29.97;75.46;100853.81;5008666;28;66244;-42
2023/10/03 04:58:44;;;;;;;;;;;;;;;29.99;75.34;100854.44;5013961;28;69492;-41
2023/10/03 05:01:14;;;;;;;;;;;;;;;30.00;75.45;100859.59;5011987;28;66574;-40
2023/10/03 05:03:44;;;;;;;;;;;;;;;30.01;75.17;100858.56;5013203;28;69498;-43
2023/10/03 05:06:14;;;;;;;;;;;;;;;30.04;74.66;100854.63;5013357;28;66812;-41
2023/10/03 05:08:44;;;;;;;;;;;;;;;30.06;74.89;100857.91;5014503;28;69976;-46
2023/10/03 05:11:14;;;;;;;;;;;;;;;30.08;74.89;100850.41;5019815;28;65609;-41
2023/10/03 05:13:45;;;;;;;;;;;;;;;30.10;74.95;100848.34;5008874;28;69900;-41
2023/10/03 05:16:17;;;;;;;;;;;;;;;30.12;74.78;100843.53;5019177;28;66308;-42
2023/10/03 05:18:47;;;;;;;;;;;;;;;30.13;74.20;100836.25;5010997;28;70423;-40
2023/10/03 05:21:17;;;;;;;;;;;;;;;30.15;74.45;100842.28;5013728;28;66285;-40
2023/10/03 05:23:47;;;;;;;;;;;;;;;30.16;74.19;100836.66;5021186;28;70553;-41
2023/10/03 05:26:21;;;;;;;;;;;;;;;30.18;74.68;100839.97;5014447;28;65488;-41
2023/10/03 05:28:55;;;;;;;;;;;;;;;30.20;74.02;100831.63;5017686;28;71343;-41
2023/10/03 05:31:25;;;;;;;;;;;;;;;30.22;74.22;100818.75;5015315;28;66931;-40
2023/10/03 05:33:56;;;;;;;;;;;;;;;30.23;74.46;100821.25;5025820;28;70553;-40
2023/10/03 05:36:26;;;;;;;;;;;;;;;30.24;73.75;100820.19;5017514;28;67051;-41
2023/10/03 05:38:55;;;;;;;;;;;;;;;30.26;73.62;100812.69;5022255;28;70571;-41
2023/10/03 05:41:26;;;;;;;;;;;;;;;30.28;73.81;100797.06;5014085;28;66423;-41
2023/10/03 05:43:55;;;;;;;;;;;;;;;30.31;73.46;100794.97;5014597;28;69782;-41
2023/10/03 05:46:25;;;;;;;;;;;;;;;30.32;73.73;100793.94;5008431;28;66145;-42
2023/10/03 05:48:55;;;;;;;;;;;;;;;30.34;73.89;100783.69;5018972;28;70026;-40
2023/10/03 05:51:25;;;;;;;;;;;;;;;30.34;73.32;100781.84;5007966;28;67054;-40
2023/10/03 05:53:55;;;;;;;;;;;;;;;30.36;73.28;100768.06;5014189;28;69964;-40
2023/10/03 05:56:24;;;;;;;;;;;;;;;30.36;73.12;100766.19;5006797;28;66276;-41
2023/10/03 05:58:54;;;;;;;;;;;;;;;30.39;73.15;100770.34;5018496;28;69914;-40
2023/10/03 06:01:24;;;;;;;;;;;;;;;30.41;73.15;100754.72;5016702;28;66903;-40
2023/10/03 06:03:56;;;;;;;;;;;;;;;30.42;73.25;100748.25;5017537;28;69774;-41
2023/10/03 06:06:31;;;;;;;;;;;;;;;30.44;73.40;100746.16;5019590;28;66345;-40
2023/10/03 06:09:02;;;;;;;;;;;;;;;30.44;73.21;100746.16;5018482;28;70444;-45
2023/10/03 06:11:34;;;;;;;;;;;;;;;30.46;73.44;100738.66;5037593;28;66933;-41
2023/10/03 06:14:04;;;;;;;;;;;;;;;30.46;73.32;100744.06;5024478;28;70190;-41
2023/10/03 06:16:37;;;;;;;;;;;;;;;30.47;73.09;100732.19;5013783;28;66255;-42
2023/10/03 06:19:07;;;;;;;;;;;;;;;30.49;72.72;100735.50;5018701;28;70390;-42
2023/10/03 06:21:37;;;;;;;;;;;;;;;30.50;72.98;100732.56;5019136;28;66060;-42
2023/10/03 06:24:07;;;;;;;;;;;;;;;30.50;72.90;100729.03;5021396;28;70995;-40
2023/10/03 06:26:37;;;;;;;;;;;;;;;30.52;72.46;100732.34;5018457;28;65592;-40
2023/10/03 06:29:07;;;;;;;;;;;;;;;30.53;72.77;100735.88;4988997;28;70149;-42
2023/10/03 06:31:36;;;;;;;;;;;;;;;30.55;72.80;100723.78;4999582;28;65529;-41
2023/10/03 06:34:06;;;;;;;;;;;;;;;30.56;72.64;100738.97;5019505;28;70094;-41
2023/10/03 06:36:36;;;;;;;;;;;;;;;30.57;73.11;100727.09;5013767;28;66497;-41
2023/10/03 06:39:08;;;;;;;;;;;;;;;30.58;72.76;100723.34;5011904;28;71106;-41
2023/10/03 06:41:41;;;;;;;;;;;;;;;30.60;72.75;100729.38;5012104;28;67614;-41
2023/10/03 06:44:11;;;;;;;;;;;;;;;30.59;72.60;100722.31;5012132;28;70362;-40
2023/10/03 06:46:42;;;;;;;;;;;;;;;30.61;72.77;100720.19;5007719;28;65548;-41
2023/10/03 06:49:12;;;;;;;;;;;;;;;30.63;72.59;100718.09;5015826;28;70288;-41
2023/10/03 06:51:42;;;;;;;;;;;;;;;30.63;72.97;100711.84;5010958;28;67271;-41
2023/10/03 06:54:12;;;;;;;;;;;;;;;30.65;72.66;100702.47;5011067;28;70748;-40
2023/10/03 06:56:41;;;;;;;;;;;;;;;30.67;72.59;100697.66;5007174;28;67435;-41
2023/10/03 06:59:12;;;;;;;;;;;;;;;30.69;72.36;100695.53;5012565;28;70768;-42
2023/10/03 07:01:41;;;;;;;;;;;;;;;30.71;72.42;100698.84;5013041;28;66003;-42
2023/10/03 07:04:11;;;;;;;;;;;;;;;30.75;72.20;100695.69;5013808;28;70547;-41
2023/10/03 07:06:41;;;;;;;;;;;;;;;30.77;72.49;100701.72;5008725;28;66290;-40
2023/10/03 07:09:13;;;;;;;;;;;;;;;30.79;72.71;100700.44;5024937;28;70012;-42
2023/10/03 07:11:47;;;;;;;;;;;;;;;30.81;72.33;100684.00;5018613;28;66621;-41
2023/10/03 07:14:17;;;;;;;;;;;;;;;30.85;72.62;100682.50;5014160;28;70938;-41
2023/10/03 07:16:48;;;;;;;;;;;;;;;30.87;72.30;100683.06;5017375;28;66108;-41
2023/10/03 07:19:21;;;;;;;;;;;;;;;30.90;72.51;100680.78;5014465;28;69269;-42
2023/10/03 07:21:52;;;;;;;;;;;;;;;30.93;72.26;100687.63;5019893;28;66954;-42
2023/10/03 07:24:24;;;;;;;;;;;;;;;30.98;72.20;100681.50;5006962;28;69412;-42
2023/10/03 07:26:54;;;;;;;;;;;;;;;31.00;72.11;100672.09;5018110;28;66276;-42
2023/10/03 07:29:25;;;;;;;;;;;;;;;31.03;72.56;100674.34;5017383;28;70317;-40
2023/10/03 07:31:56;;;;;;;;;;;;;;;31.05;72.19;100680.38;5018823;28;66830;-42
2023/10/03 07:34:26;;;;;;;;;;;;;;;31.09;72.16;100678.91;5019350;28;70297;-41
2023/10/03 07:36:57;;;;;;;;;;;;;;;31.12;71.93;100673.03;5016540;28;66573;-40
2023/10/03 07:39:28;;;;;;;;;;;;;;;31.15;72.01;100667.16;5022428;28;70800;-41
2023/10/03 07:41:57;;;;;;;;;;;;;;;31.21;71.93;100664.59;5015068;28;66334;-42
2023/10/03 07:44:28;;;;;;;;;;;;;;;31.25;71.56;100673.91;5021584;28;70201;-42
2023/10/03 07:46:57;;;;;;;;;;;;;;;31.28;71.71;100670.72;5024591;28;66288;-42
2023/10/03 07:49:28;;;;;;;;;;;;;;;31.32;71.35;100663.81;5019722;28;70829;-41
2023/10/03 07:52:04;;;;;;;;;;;;;;;31.36;71.44;100656.91;5021526;28;66192;-41
2023/10/03 07:54:36;;;;;;;;;;;;;;;31.40;71.29;100668.94;5023839;28;70056;-41
2023/10/03 07:57:08;;;;;;;;;;;;;;;31.44;71.21;100664.72;5020124;28;66703;-43
2023/10/03 07:59:37;;;;;;;;;;;;;;;31.50;70.96;100652.13;5020670;28;70211;-41
2023/10/03 08:02:10;;;;;;;;;;;;;;;31.53;71.01;100659.78;5020308;28;66324;-41
2023/10/03 08:04:42;;;;;;;;;;;;;;;31.55;70.80;100666.63;5005336;28;71513;-41
2023/10/03 08:07:21;;;;;;;;;;;;;;;31.60;70.45;100665.97;5011439;28;65852;-42
2023/10/03 08:09:51;;;;;;;;;;;;;;;31.64;70.31;100671.75;5011095;28;70383;-42
2023/10/03 08:12:24;;;;;;;;;;;;;;;31.67;70.11;100663.13;5014402;28;66522;-42
2023/10/03 08:14:54;;;;;;;;;;;;;;;31.69;69.90;100666.47;5019890;28;70634;-41
2023/10/03 08:17:26;;;;;;;;;;;;;;;31.73;69.87;100670.34;5018272;28;65906;-42
2023/10/03 08:19:56;;;;;;;;;;;;;;;31.73;69.49;100670.34;5017187;28;69371;-47
2023/10/03 08:22:25;;;;;;;;;;;;;;;31.76;69.47;100676.16;5010708;28;66999;-42
2023/10/03 08:24:55;;;;;;;;;;;;;;;31.79;69.50;100680.28;5018234;28;70718;-42
2023/10/03 08:27:30;;;;;;;;;;;;;;;31.81;69.43;100670.84;5022748;28;66467;-41
2023/10/03 08:30:01;;;;;;;;;;;;;;;31.87;69.01;100674.50;5017344;28;70656;-42
2023/10/03 08:32:31;;;;;;;;;;;;;;;31.89;69.08;100677.81;5009774;28;65871;-41
2023/10/03 08:35:08;;;;;;;;;;;;;;;31.94;69.03;100669.84;5011204;28;69884;-40
2023/10/03 08:37:38;;;;;;;;;;;;;;;31.97;68.92;100663.97;5008757;28;67063;-40
2023/10/03 08:40:19;;;;;;;;;;;;;;;32.00;68.64;100674.34;5010335;28;69750;-41
2023/10/03 08:42:52;;;;;;;;;;;;;;;32.02;68.42;100674.94;5013903;28;66717;-40
2023/10/03 08:45:25;;;;;;;;;;;;;;;32.05;68.52;100677.19;5011506;28;70387;-41
2023/10/03 08:47:55;;;;;;;;;;;;;;;32.08;68.45;100672.34;5015914;28;65866;-40
2023/10/03 08:50:29;;;;;;;;;;;;;;;32.09;68.26;100676.72;5014953;28;70141;-41
2023/10/03 08:53:12;;;;;;;;;;;;;;;32.10;68.29;100681.91;5003596;28;65771;-41
2023/10/03 08:55:46;;;;;;;;;;;;;;;32.13;68.39;100675.22;5009863;28;69955;-41
2023/10/03 08:58:18;;;;;;;;;;;;;;;32.15;67.96;100681.19;5015229;28;66598;-40
2023/10/03 09:00:49;;;;;;;;;;;;;;;32.17;67.87;100684.53;5015467;28;69285;-41
2023/10/03 09:03:19;;;;;;;;;;;;;;;32.17;67.99;100679.09;5019664;28;66116;-41
2023/10/03 09:05:49;;;;;;;;;;;;;;;32.18;67.68;100686.16;5018822;28;69349;-40
2023/10/03 09:08:19;;;;;;;;;;;;;;;32.21;67.84;100681.13;5015334;28;66707;-41
2023/10/03 09:10:55;;;;;;;;;;;;;;;32.23;67.96;100678.16;5026785;28;70105;-41
2023/10/03 09:13:28;;;;;;;;;;;;;;;32.25;67.72;100681.47;5009473;28;66460;-43
2023/10/03 09:16:14;;;;;;;;;;;;;;;32.27;67.83;100684.78;5018322;28;69318;-41
2023/10/03 09:18:49;;;;;;;;;;;;;;;32.27;67.62;100684.78;5010317;28;66810;-41
2023/10/03 09:21:27;;;;;;;;;;;;;;;32.26;67.39;100677.69;5022356;28;69811;-39
2023/10/03 09:24:12;;;;;;;;;;;;;;;31.95;67.79;100676.91;5013027;28;66265;-40
2023/10/03 09:26:46;;;;;;;;;;;;;;;31.87;67.66;100679.94;5014347;28;69043;-40
2023/10/03 09:29:18;;;;;;;;;;;;;;;31.77;67.92;100685.13;5019452;28;66287;-39
2023/10/03 09:31:49;;;;;;;;;;;;;;;31.75;68.06;100687.22;5011042;28;68548;-39
2023/10/03 09:34:19;;;;;;;;;;;;;;;31.68;68.54;100681.06;5014581;28;66799;-42
2023/10/03 09:36:50;;;;;;;;;;;;;;;31.68;69.15;100681.06;5013661;28;71012;-40
2023/10/03 09:39:23;;;;;;;;;;;;;;;31.90;68.62;100681.34;5022733;28;65863;-40
2023/10/03 09:41:57;;;;;;;;;;;;;;;31.98;68.50;100681.91;5019427;28;69488;-39
2023/10/03 09:44:30;;;;;;;;;;;;;;;31.87;68.50;100687.25;5018208;28;66340;-40
2023/10/03 09:47:09;;;;;;;;;;;;;;;31.54;69.81;100686.69;5014439;28;70131;-40
2023/10/03 09:49:40;;;;;;;;;;;;;;;31.36;70.63;100689.41;5010981;28;65709;-40
2023/10/03 09:52:18;;;;;;;;;;;;;;;31.30;71.49;100690.31;5027029;28;69626;-39
2023/10/03 09:54:51;;;;;;;;;;;;;;;31.24;72.02;100683.09;5021672;28;66144;-40
2023/10/03 09:57:28;;;;;;;;;;;;;;;31.21;72.08;100691.69;5002680;28;71089;-41
2023/10/03 09:59:58;;;;;;;;;;;;;;;31.15;72.90;100688.81;5013541;28;66887;-39
2023/10/03 10:02:36;;;;;;;;;;;;;;;31.14;73.22;100686.31;5005306;28;70321;-39
2023/10/03 10:05:08;;;;;;;;;;;;;;;31.12;73.44;100683.84;5012738;28;65192;-39
2023/10/03 10:08:06;;;;;;;;;;;;;;;31.10;73.97;100685.97;5010807;28;70420;-39
2023/10/03 10:10:36;;;;;;;;;;;;;;;31.12;73.97;100683.84;4986015;28;66135;-39
2023/10/03 10:13:13;;;;;;;;;;;;;;;31.12;73.90;100691.13;5011088;28;69920;-39
2023/10/03 10:16:11;;;;;;;;;;;;;;;31.09;74.10;100695.16;5015361;28;66449;-39
2023/10/03 10:18:44;;;;;;;;;;;;;;;31.10;74.62;100693.25;4998383;28;69137;-40
2023/10/03 10:21:31;;;;;;;;;;;;;;;31.07;74.83;100697.25;5017458;28;66411;-40
2023/10/03 10:24:16;;;;;;;;;;;;;;;31.05;75.15;100699.34;5016382;28;70335;-39
2023/10/03 10:26:48;;;;;;;;;;;;;;;31.06;74.93;100706.41;5008713;28;65669;-41
2023/10/03 10:29:20;;;;;;;;;;;;;;;31.03;75.36;100720.41;5021257;28;69964;-41
2023/10/03 10:32:00;;;;;;;;;;;;;;;31.05;75.31;100726.44;4999054;28;67449;-39
2023/10/03 10:34:32;;;;;;;;;;;;;;;31.01;75.51;100725.25;4993481;28;70496;-39
2023/10/03 10:37:04;;;;;;;;;;;;;;;31.01;75.44;100727.97;5011722;28;66274;-40
2023/10/03 10:39:52;;;;;;;;;;;;;;;30.99;75.58;100734.66;5011716;28;69251;-40
2023/10/03 10:42:26;;;;;;;;;;;;;;;30.99;75.41;100740.88;5017178;28;66992;-39
2023/10/03 10:45:13;;;;;;;;;;;;;;;30.96;75.48;100744.03;5020559;28;70475;-40
2023/10/03 10:47:55;;;;;;;;;;;;;;;30.94;76.48;100751.56;5021953;28;66772;-41
2023/10/03 10:50:28;;;;;;;;;;;;;;;30.91;76.33;100762.84;5010663;28;69617;-41
2023/10/03 10:53:02;;;;;;;;;;;;;;;30.90;76.55;100759.31;5014254;28;66508;-41
2023/10/03 10:55:33;;;;;;;;;;;;;;;30.89;76.51;100765.75;5011536;28;69724;-40
2023/10/03 10:58:12;;;;;;;;;;;;;;;30.89;76.73;100770.34;5018839;28;66290;-47
2023/10/03 11:00:43;;;;;;;;;;;;;;;30.90;76.79;100777.44;5018433;28;70618;-41
2023/10/03 11:03:21;;;;;;;;;;;;;;;30.91;76.99;100781.81;5017841;28;66015;-40
2023/10/03 11:05:51;;;;;;;;;;;;;;;30.92;77.40;100783.44;5020401;28;69247;-40
2023/10/03 11:08:21;;;;;;;;;;;;;;;30.89;77.47;100786.59;5019402;28;65875;-39
2023/10/03 11:10:52;;;;;;;;;;;;;;;30.89;77.66;100781.19;5024197;28;69791;-40
2023/10/03 11:13:22;;;;;;;;;;;;;;;30.88;77.38;100784.97;5017744;28;66394;-39
2023/10/03 11:15:53;;;;;;;;;;;;;;;30.84;77.71;100789.16;5024017;28;70274;-40
2023/10/03 11:18:33;;;;;;;;;;;;;;;30.85;78.58;100791.66;5016997;28;66756;-39
2023/10/03 11:21:03;;;;;;;;;;;;;;;30.82;78.58;100788.56;5018630;28;69831;-41
2023/10/03 11:23:34;;;;;;;;;;;;;;;30.79;78.69;100792.50;5011746;28;66605;-39
2023/10/03 11:26:05;;;;;;;;;;;;;;;30.98;78.27;100788.00;5025557;28;70402;-39
2023/10/03 11:28:44;;;;;;;;;;;;;;;31.10;77.33;100802.47;5021490;28;66218;-42
2023/10/03 11:31:14;;;;;;;;;;;;;;;31.21;76.63;100798.19;5026029;28;70359;-40
2023/10/03 11:33:45;;;;;;;;;;;;;;;31.27;76.10;100810.81;5010560;28;66657;-40
2023/10/03 11:36:15;;;;;;;;;;;;;;;31.33;75.82;100811.81;5004816;28;69286;-38
2023/10/03 11:38:54;;;;;;;;;;;;;;;31.36;75.40;100824.94;5003114;28;66916;-39
2023/10/03 11:41:33;;;;;;;;;;;;;;;31.38;75.73;100826.38;5019438;28;69739;-40
2023/10/03 11:44:04;;;;;;;;;;;;;;;31.40;75.68;100828.88;5019873;28;66528;-40
2023/10/03 11:46:38;;;;;;;;;;;;;;;31.42;75.50;100834.06;5019544;28;70812;-40
2023/10/03 11:49:08;;;;;;;;;;;;;;;31.43;75.71;100825.72;5026659;28;67162;-38
2023/10/03 11:51:43;;;;;;;;;;;;;;;31.43;75.39;100831.13;5013574;28;70525;-39
2023/10/03 11:54:14;;;;;;;;;;;;;;;31.41;75.53;100838.66;5021175;28;66507;-37
2023/10/03 11:56:45;;;;;;;;;;;;;;;31.43;75.50;100841.16;5019081;28;69973;-39
2023/10/03 11:59:15;;;;;;;;;;;;;;;31.43;75.72;100841.16;5023995;28;65761;-40
2023/10/03 12:01:56;;;;;;;;;;;;;;;31.41;75.44;100833.22;5018048;28;70481;-41
2023/10/03 12:04:31;;;;;;;;;;;;;;;31.41;75.55;100833.22;5011071;28;66632;-38
2023/10/03 12:07:02;;;;;;;;;;;;;;;31.42;75.63;100844.91;5021167;28;70330;-39
2023/10/03 12:09:32;;;;;;;;;;;;;;;31.42;75.73;100843.00;5016684;28;68559;-39
2023/10/03 12:12:02;;;;;;;;;;;;;;;31.40;75.85;100850.56;5021269;28;69853;-39
2023/10/03 12:14:32;;;;;;;;;;;;;;;31.39;75.42;100851.59;5021794;28;65547;-39
2023/10/03 12:17:02;;;;;;;;;;;;;;;31.38;75.76;100855.38;5024039;28;69961;-38
2023/10/03 12:19:33;;;;;;;;;;;;;;;31.37;75.50;100869.94;5021514;28;66090;-38
2023/10/03 12:22:02;;;;;;;;;;;;;;;31.36;75.76;100873.72;5026915;28;70276;-38
2023/10/03 12:24:35;;;;;;;;;;;;;;;31.34;76.02;100871.22;5018946;28;66597;-39
2023/10/03 12:27:05;;;;;;;;;;;;;;;31.33;75.98;100885.00;5022175;28;70789;-39
2023/10/03 12:29:35;;;;;;;;;;;;;;;31.33;75.94;100895.84;5022439;28;65422;-40
2023/10/03 12:32:05;;;;;;;;;;;;;;;31.31;75.88;100895.22;5019170;28;70346;-39
2023/10/03 12:34:35;;;;;;;;;;;;;;;31.29;76.15;100910.91;5016748;28;66614;-40
2023/10/03 12:37:11;;;;;;;;;;;;;;;31.27;76.17;100907.56;5018717;28;69215;-39
2023/10/03 12:39:41;;;;;;;;;;;;;;;31.25;76.08;100915.91;5021345;28;66856;-41
2023/10/03 12:42:12;;;;;;;;;;;;;;;31.25;76.54;100915.09;5021958;28;68951;-41
2023/10/03 12:44:43;;;;;;;;;;;;;;;31.06;78.11;100923.16;5015990;28;66020;-38
2023/10/03 12:47:14;;;;;;;;;;;;;;;30.84;78.79;100935.41;5011111;28;70053;-39
2023/10/03 12:49:44;;;;;;;;;;;;;;;30.70;79.89;100940.03;5021715;28;65748;-39
2023/10/03 12:52:13;;;;;;;;;;;;;;;30.63;80.09;100950.91;5015892;28;70231;-39
2023/10/03 12:54:44;;;;;;;;;;;;;;;30.58;81.29;100952.63;5019725;28;66292;-38
2023/10/03 12:57:14;;;;;;;;;;;;;;;30.54;81.62;100957.66;5015795;28;69792;-40
2023/10/03 12:59:49;;;;;;;;;;;;;;;30.51;81.62;100968.91;5005621;28;66589;-39